Flight Track Log - Related Links

Times and Time Zones

All times are in EDT time to prevent confusion due to time zone crossing. See the N264FX flight status page for this flight to view local times or setup timezone preferences in your user account.

Time Position Orientation Groundspeed Altitude Reporting Facility
EDT Latitude Longitude Course Direction KTS MPH feet Rate Location/Type
Mon 04:09:59 PM 26.7339 -79.9992 349° North 275 316 5,900  Level Miami Center
Mon 04:10:59 PM 26.8044 -80.0150 305° West 292 336 9,500 2,050 Climbing Miami Center
Mon 04:11:59 PM 26.8508 -80.0883 308° West 301 346 10,000 250 Climbing Miami Center
Mon 04:12:59 PM 26.9014 -80.1619 312° West 301 346 10,000 1,050 Level Miami Center
Mon 04:13:59 PM 26.9481 -80.2192 313° West 287 330 12,100 1,500 Climbing Miami Center
Mon 04:14:59 PM 27.0153 -80.3006 313° West 300 345 13,000 700 Climbing Miami Center
Mon 04:15:59 PM 27.0739 -80.3722 313° West 305 351 13,500 1,950 Climbing Miami Center
Mon 04:16:59 PM 27.1289 -80.4392 319° Northwest 305 351 16,900 3,050 Climbing Miami Center
Mon 04:17:59 PM 27.1900 -80.4994 323° Northwest 304 350 19,600 2,800 Climbing Miami Center
Mon 04:18:59 PM 27.2633 -80.5625 312° West 323 372 22,500 2,050 Climbing Miami Center
Mon 04:19:59 PM 27.3322 -80.6489 307° West 343 395 23,700 1,800 Climbing Miami Center
Mon 04:20:59 PM 27.3986 -80.7469 316° Northwest 376 433 26,100 2,400 Climbing Miami Center
Mon 04:21:59 PM 27.4797 -80.8339 316° Northwest 391 450 28,500 2,650 Climbing Miami Center
Mon 04:22:59 PM 27.5608 -80.9211 316° Northwest 403 464 31,400 2,550 Climbing Miami Center
Mon 04:23:59 PM 27.6397 -81.0081 314° West 398 458 33,600 2,250 Climbing Miami Center
Mon 04:24:59 PM 27.7183 -81.1000 316° Northwest 398 458 35,900 2,350 Climbing Miami Center
Mon 04:25:59 PM 27.7972 -81.1875 317° Northwest 398 458 38,300 2,050 Climbing Miami Center
Mon 04:26:59 PM 27.8861 -81.2825 315° West 399 459 40,000 850 Climbing Miami Center
Mon 04:27:59 PM 27.9667 -81.3725 315° West 399 459 40,000  Level Miami Center
Mon 04:28:59 PM 28.0472 -81.4653 316° Northwest 423 487 40,000  Level Miami Center
Mon 04:29:59 PM 28.1358 -81.5631 315° West 441 507 40,000  Level Miami Center
Mon 04:30:59 PM 28.2264 -81.6656 315° West 448 516 40,000  Level Miami Center
Mon 04:34:16 PM 28.5350 -82.0136 316° Northwest 445 512 40,000  Level Jacksonville Center
Mon 04:35:17 PM 28.6169 -82.1028 315° West 453 521 40,000  Level Jacksonville Center
Mon 04:36:17 PM 28.7053 -82.2039 315° West 453 521 40,000  Level Jacksonville Center
Mon 04:37:17 PM 28.7933 -82.3050 314° West 453 521 40,000  Level Jacksonville Center
Mon 04:38:16 PM 28.8858 -82.4136 307° West 435 501 40,000 -50 Level Jacksonville Center
Mon 04:39:17 PM 28.9611 -82.5272 292° West 444 511 39,900  Descending Jacksonville Center
Mon 04:40:17 PM 29.0075 -82.6600 290° West 444 511 40,000 50 Climbing Jacksonville Center
Mon 04:41:17 PM 29.0514 -82.7953 291° West 449 517 40,000 -50 Level Jacksonville Center
Mon 04:42:17 PM 29.0953 -82.9258 292° West 449 517 39,900  Descending Jacksonville Center
Mon 04:43:17 PM 29.1411 -83.0589 291° West 449 517 40,000 600 Climbing Jacksonville Center
Mon 04:44:17 PM 29.1847 -83.1922 290° West 449 517 41,100 1,350 Climbing Jacksonville Center
Mon 04:45:17 PM 29.2261 -83.3208 291° West 449 517 42,700 950 Climbing Jacksonville Center
Mon 04:46:17 PM 29.2694 -83.4472 290° West 443 510 43,000 150 Climbing Jacksonville Center
Mon 04:47:17 PM 29.3128 -83.5808 291° West 443 510 43,000  Level Jacksonville Center
Mon 04:48:17 PM 29.3578 -83.7122 291° West 448 516 43,000  Level Jacksonville Center
Mon 04:49:17 PM 29.4008 -83.8436 290° West 448 516 43,000  Level Jacksonville Center
Mon 04:50:17 PM 29.4436 -83.9753 290° West 448 516 43,000  Level Jacksonville Center
Mon 04:51:17 PM 29.4861 -84.1092 290° West 448 516 43,000 -50 Level Jacksonville Center
Mon 04:52:17 PM 29.5286 -84.2411 291° West 448 516 42,900  Descending Jacksonville Center
Mon 04:53:17 PM 29.5711 -84.3706 291° West 448 516 43,000  Climbing Jacksonville Center
Mon 04:54:17 PM 29.6133 -84.4978 289° West 443 510 42,900  Descending Jacksonville Center
Mon 04:55:17 PM 29.6533 -84.6325 291° West 443 510 43,000  Climbing Jacksonville Center
Mon 04:56:17 PM 29.6975 -84.7622 291° West 443 510 42,900  Descending Jacksonville Center
Mon 04:57:17 PM 29.7414 -84.8947 290° West 438 504 43,000 50 Climbing Jacksonville Center
Mon 04:58:17 PM 29.7811 -85.0222 290° West 438 504 43,000  Level Jacksonville Center
Mon 04:59:17 PM 29.8228 -85.1550 289° West 438 504 43,000  Level Jacksonville Center
Mon 05:00:17 PM 29.8619 -85.2850 289° West 438 504 43,000  Level Jacksonville Center
Mon 05:01:17 PM 29.9014 -85.4156 290° West 433 498 43,000  Level Jacksonville Center
Mon 05:02:17 PM 29.9425 -85.5436 288° West 433 498 43,000  Level Jacksonville Center
Mon 05:03:17 PM 29.9736 -85.6547 290° West 433 498 43,000  Level Jacksonville Center
Mon 05:04:17 PM 30.0203 -85.8025 291° West 443 510 43,000  Level Jacksonville Center
Mon 05:05:17 PM 30.0633 -85.9308 290° West 448 516 43,000  Level Jacksonville Center
Mon 05:06:17 PM 30.1039 -86.0594 290° West 441 507 43,000  Level Jacksonville Center
Mon 05:07:16 PM 30.1447 -86.1881 289° West 433 498 43,000  Level Jacksonville Center
Mon 05:08:16 PM 30.1850 -86.3214 289° West 433 498 43,000  Level Jacksonville Center
Mon 05:09:16 PM 30.2231 -86.4503 287° West 433 498 43,000  Level Jacksonville Center
Mon 05:10:17 PM 30.2589 -86.5839 292° West 433 498 43,000  Level Jacksonville Center
Mon 05:11:17 PM 30.3033 -86.7131 288° West 433 498 43,000  Level Jacksonville Center
Mon 05:12:17 PM 30.3408 -86.8469 289° West 433 498 43,000  Level Jacksonville Center
Mon 05:13:17 PM 30.3844 -86.9908 290° West 433 498 43,000  Level Jacksonville Center
Mon 05:14:17 PM 30.4258 -87.1250 289° West 433 498 43,000  Level Jacksonville Center
Mon 05:16:08 PM 30.4975 -87.3739 289° West 429 494 43,000  Level Houston Center
Mon 05:17:08 PM 30.5372 -87.5097 288° West 434 499 43,000  Level Houston Center
Mon 05:18:08 PM 30.5747 -87.6408 289° West 434 499 43,000  Level Houston Center
Mon 05:19:08 PM 30.6142 -87.7767 288° West 446 513 43,000  Level Houston Center
Mon 05:20:08 PM 30.6533 -87.9150 288° West 441 507 43,000  Level Houston Center
Mon 05:21:08 PM 30.6906 -88.0514 290° West 441 507 43,000  Level Houston Center
Mon 05:22:08 PM 30.7339 -88.1897 289° West 453 521 43,000  Level Houston Center
Mon 05:23:08 PM 30.7750 -88.3286 287° West 453 521 43,000  Level Houston Center
Mon 05:24:08 PM 30.8117 -88.4650 288° West 453 521 43,000  Level Houston Center
Mon 05:25:08 PM 30.8503 -88.6017 286° West 453 521 43,000  Level Houston Center
Mon 05:26:08 PM 30.8847 -88.7433 286° West 453 521 43,000  Level Houston Center
Mon 05:27:08 PM 30.9189 -88.8828 285° West 453 521 43,000  Level Houston Center
Mon 05:28:08 PM 30.9508 -89.0175 282° West 448 516 43,000  Level Houston Center
Mon 05:29:08 PM 30.9764 -89.1572 283° West 448 516 43,000  Level Houston Center
Mon 05:30:08 PM 31.0039 -89.2969 281° West 448 516 43,000  Level Houston Center
Mon 05:31:08 PM 31.0272 -89.4344 282° West 448 516 43,000  Level Houston Center
Mon 05:32:08 PM 31.0544 -89.5792 282° West 448 516 43,000  Level Houston Center
Mon 05:33:08 PM 31.0794 -89.7169 282° West 448 516 43,000  Level Houston Center
Mon 05:34:08 PM 31.1044 -89.8547 282° West 448 516 43,000  Level Houston Center
Mon 05:35:08 PM 31.1292 -89.9900 281° West 443 510 43,000  Level Houston Center
Mon 05:36:08 PM 31.1517 -90.1278 282° West 443 510 43,000  Level Houston Center
Mon 05:37:08 PM 31.1761 -90.2633 281° West 437 503 43,000  Level Houston Center
Mon 05:38:08 PM 31.1981 -90.3992 283° West 437 503 43,000  Level Houston Center
Mon 05:39:08 PM 31.2244 -90.5322 280° West 430 495 43,000  Level Houston Center
Mon 05:40:08 PM 31.2442 -90.6681 283° West 430 495 43,000  Level Houston Center
Mon 05:41:08 PM 31.2703 -90.8036 282° West 430 495 43,000  Level Houston Center
Mon 05:42:08 PM 31.2939 -90.9394 281° West 430 495 43,000  Level Houston Center
Mon 05:43:08 PM 31.3156 -91.0756 281° West 430 495 43,000  Level Houston Center
Mon 05:44:08 PM 31.3347 -91.1919 281° West 422 486 43,000  Level Houston Center
Mon 05:45:08 PM 31.3558 -91.3256 282° West 422 486 43,000  Level Houston Center
Mon 05:46:08 PM 31.3792 -91.4592 281° West 422 486 43,000  Level Houston Center
Mon 05:47:08 PM 31.4044 -91.6075 281° West 427 491 43,000  Level Houston Center
Mon 05:48:08 PM 31.4253 -91.7364 281° West 427 491 43,000  Level Houston Center
Mon 05:49:08 PM 31.4481 -91.8703 280° West 427 491 43,000  Level Houston Center
Mon 05:50:08 PM 31.4686 -92.0017 281° West 427 491 43,000  Level Houston Center
Mon 05:51:08 PM 31.4892 -92.1236 281° West 432 497 43,000  Level Houston Center
Mon 05:52:08 PM 31.5114 -92.2600 281° West 427 491 43,000  Level Houston Center
Mon 05:53:08 PM 31.5339 -92.3964 280° West 427 491 43,000  Level Houston Center
Mon 05:54:08 PM 31.5539 -92.5281 279° West 427 491 43,000  Level Houston Center
Mon 05:55:08 PM 31.5736 -92.6672 281° West 427 491 43,000  Level Houston Center
Mon 05:57:27 PM 31.6267 -92.9953 281° West 435 501 43,000  Level Fort Worth Center
Mon 05:58:27 PM 31.6478 -93.1283 279° West 430 495 43,000  Level Fort Worth Center
Mon 05:59:27 PM 31.6669 -93.2642 279° West 423 487 43,000  Level Fort Worth Center
Mon 06:00:27 PM 31.6858 -93.3975 286° West 423 487 43,000  Level Fort Worth Center
Mon 06:01:27 PM 31.7172 -93.5281 291° West 423 487 43,000  Level Fort Worth Center
Mon 06:02:27 PM 31.7586 -93.6533 290° West 423 487 43,000  Level Fort Worth Center
Mon 06:03:27 PM 31.7978 -93.7811 289° West 418 481 43,000  Level Fort Worth Center
Mon 06:04:27 PM 31.8347 -93.9094 291° West 418 481 43,000  Level Fort Worth Center
Mon 06:05:27 PM 31.8758 -94.0350 292° West 418 481 43,000  Level Fort Worth Center
Mon 06:06:27 PM 31.9144 -94.1486 290° West 418 481 43,000  Level Fort Worth Center
Mon 06:07:27 PM 31.9531 -94.2769 290° West 418 481 43,000  Level Fort Worth Center
Mon 06:08:27 PM 31.9917 -94.4006 291° West 418 481 43,000 -50 Level Fort Worth Center
Mon 06:09:27 PM 32.0322 -94.5267 289° West 418 481 42,900 -750 Descending Fort Worth Center
Mon 06:10:27 PM 32.0683 -94.6531 289° West 418 481 41,500 -1,450 Descending Fort Worth Center
Mon 06:11:27 PM 32.1067 -94.7817 290° West 418 481 40,000 -1,450 Descending Fort Worth Center
Mon 06:12:27 PM 32.1469 -94.9131 289° West 423 487 38,600 -1,450 Descending Fort Worth Center
Mon 06:13:27 PM 32.1869 -95.0469 289° West 428 493 37,100 -1,600 Descending Fort Worth Center
Mon 06:14:27 PM 32.2292 -95.1908 290° West 428 493 35,400 -1,950 Descending Fort Worth Center
Mon 06:15:27 PM 32.2647 -95.3078 289° West 428 493 33,200 -2,700 Descending Fort Worth Center
Mon 06:16:27 PM 32.3044 -95.4422 289° West 423 487 30,000 -3,250 Descending Fort Worth Center
Mon 06:17:27 PM 32.3442 -95.5814 290° West 435 501 26,700 -3,250 Descending Fort Worth Center
Mon 06:18:27 PM 32.3856 -95.7133 288° West 435 501 23,500 -3,150 Descending Fort Worth Center
Mon 06:19:27 PM 32.4208 -95.8458 289° West 440 506 20,400 -3,350 Descending Fort Worth Center
Mon 06:20:27 PM 32.4642 -95.9928 299° West 434 499 16,800 -3,128 Descending Fort Worth Center
Mon 06:21:01 PM 32.4892 -96.0458 287° West 405 466 15,500 -2,833 Descending FAA TRACON SMA TRACON (SMA)
Mon 06:21:39 PM 32.5111 -96.1328 289° West 395 455 13,400 -2,925 Descending FAA TRACON SMA TRACON (SMA)
Mon 06:22:21 PM 32.5339 -96.2125 287° West 365 420 11,600 -2,475 Descending FAA TRACON SMA TRACON (SMA)
Mon 06:22:59 PM 32.5503 -96.2764 296° West 326 375 10,100 -2,127 Descending FAA TRACON SMA TRACON (SMA)
Mon 06:23:40 PM 32.5750 -96.3369 301° West 291 335 8,800 -1,575 Descending FAA TRACON SMA TRACON (SMA)
Mon 06:24:19 PM 32.5989 -96.3839 303° West 270 311 8,000 -1,350 Descending FAA TRACON SMA TRACON (SMA)
Mon 06:25:00 PM 32.6278 -96.4364 304° West 275 316 7,000 -1,575 Descending FAA TRACON SMA TRACON (SMA)
Mon 06:25:39 PM 32.6572 -96.4886 306° West 275 316 5,900 -1,367 Descending FAA TRACON SMA TRACON (SMA)
Mon 06:26:19 PM 32.6872 -96.5383 317° Northwest 277 319 5,200 -750 Descending FAA TRACON SMA TRACON (SMA)
Mon 06:26:59 PM 32.7269 -96.5825 318° Northwest 284 327 4,900 -220 Descending FAA TRACON SMA TRACON (SMA)
Mon 06:27:41 PM 32.7606 -96.6189 317° Northwest 266 306 4,900 -289 Level FAA TRACON SMA TRACON (SMA)
Mon 06:28:22 PM 32.7978 -96.6597 317° Northwest 254 292 4,500 -741 Descending FAA TRACON SMA TRACON (SMA)
Mon 06:29:02 PM 32.8297 -96.6953 319° Northwest 233 268 3,900 -462 Descending FAA TRACON SMA TRACON (SMA)
Mon 06:29:40 PM 32.8594 -96.7264 317° Northwest 223 257 3,900  Level FAA TRACON SMA TRACON (SMA)
Mon 06:30:19 PM 32.8914 -96.7619 317° Northwest 235 270 3,900 -375 Level FAA TRACON SMA TRACON (SMA)
Mon 06:31:00 PM 32.9222 -96.7967 291° West 238 274 3,400 -741 Descending FAA TRACON SMA TRACON (SMA)
Mon 06:31:40 PM 32.9369 -96.8419 267° West 223 257 2,900 -741 Descending FAA TRACON SMA TRACON (SMA)
Mon 06:32:21 PM 32.9353 -96.8858 206° Southwest 191 220 2,400 -889 Descending FAA TRACON SMA TRACON (SMA)
Mon 06:33:01 PM 32.9100 -96.9008 160° South 154 177 1,700 -825 Descending FAA TRACON SMA TRACON (SMA)
Mon 06:33:41 PM 32.8886 -96.8914 136° Southeast 140 161 1,300 -667 Descending FAA TRACON SMA TRACON (SMA)
Mon 06:34:22 PM 32.8697 -96.8694 136° Southeast 137 158 800 -732 Descending FAA TRACON SMA TRACON (SMA)

Login

Don't have an account? Register now (free) for customized features, flight alerts, and more!